Time;durP1;ratioP1;P1;durP2;ratioP2;P2;SDS_P1;SDS_P2;PMS_P1;PMS_P2;Temp;Humidity;BMP_temperature;BMP_pressure;BME280_temperature;BME280_humidity;BME280_pressure;Samples;Min_cycle;Max_cycle;Signal;HPM_P1;HPM_P2
2021/06/20 00:00:33;;;;;;;;;;;;;;;-144.31;100.00;72866.16;4961179;28;19969;-70
2021/06/20 00:02:59;;;;;;;;;;;;;;;-144.31;100.00;72870.16;4953260;28;19919;-70
2021/06/20 00:05:31;;;;;;;;;;;;;;;-144.31;100.00;72860.16;4974018;28;19937;-71
2021/06/20 00:08:00;;;;;;;;;;;;;;;-144.31;100.00;72834.22;4960664;28;20008;-71
2021/06/20 00:10:26;;;;;;;;;;;;;;;-144.31;100.00;72798.28;4958120;28;19917;-72
2021/06/20 00:12:52;;;;;;;;;;;;;;;-144.31;100.00;72716.47;4973880;28;19920;-71
2021/06/20 00:15:18;;;;;;;;;;;;;;;-144.31;100.00;72712.47;4960078;28;19918;-71
2021/06/20 00:17:44;;;;;;;;;;;;;;;-144.31;100.00;72738.41;4957195;28;20365;-71
2021/06/20 00:20:10;;;;;;;;;;;;;;;-144.31;100.00;72748.41;4958524;28;19921;-70
2021/06/20 00:22:35;;;;;;;;;;;;;;;-144.31;100.00;72762.38;4958443;28;20345;-70
2021/06/20 00:25:02;;;;;;;;;;;;;;;-144.31;100.00;72756.38;4958244;28;19918;-69
2021/06/20 00:27:27;;;;;;;;;;;;;;;-144.31;100.00;72764.38;4959944;28;19909;-70
2021/06/20 00:29:53;;;;;;;;;;;;;;;-144.31;100.00;72758.38;4972760;28;19917;-69
2021/06/20 00:32:18;;;;;;;;;;;;;;;-144.31;100.00;72710.47;4962652;28;19941;-70
2021/06/20 00:34:44;;;;;;;;;;;;;;;-144.31;100.00;72714.47;4959751;28;19926;-71
2021/06/20 00:37:09;;;;;;;;;;;;;;;-144.31;100.00;72666.56;4959975;28;19917;-70
2021/06/20 00:39:35;;;;;;;;;;;;;;;-144.31;100.00;72694.50;4958177;28;19918;-70
2021/06/20 00:42:00;;;;;;;;;;;;;;;-144.31;100.00;72654.59;4957531;28;19917;-71
2021/06/20 00:44:25;;;;;;;;;;;;;;;-144.31;100.00;72694.50;4959677;28;20247;-70
2021/06/20 00:46:51;;;;;;;;;;;;;;;-144.31;100.00;72704.50;4961632;28;19914;-70
2021/06/20 00:49:19;;;;;;;;;;;;;;;-144.31;100.00;72720.44;4956324;28;20332;-70
2021/06/20 00:51:44;;;;;;;;;;;;;;;-144.31;100.00;72704.50;4957499;28;20001;-69
2021/06/20 00:54:10;;;;;;;;;;;;;;;-144.31;100.00;72682.53;4957111;28;19937;-69
2021/06/20 00:56:35;;;;;;;;;;;;;;;-144.31;100.00;72686.53;4962718;28;19925;-71
2021/06/20 00:59:02;;;;;;;;;;;;;;;-144.31;100.00;72702.50;4973262;28;19956;-70
2021/06/20 01:01:31;;;;;;;;;;;;;;;-144.31;100.00;72716.47;4962597;28;19918;-70
2021/06/20 01:03:59;;;;;;;;;;;;;;;-144.31;100.00;72714.47;4960403;28;19922;-70
2021/06/20 01:06:25;;;;;;;;;;;;;;;-144.31;100.00;72710.47;4975689;28;19925;-70
2021/06/20 01:08:50;;;;;;;;;;;;;;;-144.31;100.00;72734.44;4963301;28;19917;-69
2021/06/20 01:11:17;;;;;;;;;;;;;;;-144.31;100.00;72742.41;4963911;28;20304;-70
2021/06/20 01:13:42;;;;;;;;;;;;;;;-144.31;100.00;72744.41;4974519;28;20377;-69
2021/06/20 01:16:08;;;;;;;;;;;;;;;-144.31;100.00;72762.38;4964222;28;19922;-68
2021/06/20 01:18:33;;;;;;;;;;;;;;;-144.31;100.00;72770.34;4963640;28;20016;-69
2021/06/20 01:20:59;;;;;;;;;;;;;;;-144.31;100.00;72790.31;4966425;28;19918;-68
2021/06/20 01:23:24;;;;;;;;;;;;;;;-144.31;100.00;72804.28;4960332;28;19918;-70
2021/06/20 01:25:51;;;;;;;;;;;;;;;-144.31;100.00;72814.25;4978709;28;19953;-69
2021/06/20 01:28:17;;;;;;;;;;;;;;;-144.31;100.00;72818.25;4960186;28;19984;-69
2021/06/20 01:30:46;;;;;;;;;;;;;;;-144.31;100.00;72836.22;4963889;28;19918;-69
2021/06/20 01:33:15;;;;;;;;;;;;;;;-144.31;100.00;72856.19;4963279;28;20235;-69
2021/06/20 01:35:40;;;;;;;;;;;;;;;-144.31;100.00;72874.13;4963731;28;19920;-70
2021/06/20 01:38:07;;;;;;;;;;;;;;;-144.31;100.00;72884.13;4960192;28;20304;-70
2021/06/20 01:40:33;;;;;;;;;;;;;;;-144.31;100.00;72908.06;4961194;28;19918;-69
2021/06/20 01:42:59;;;;;;;;;;;;;;;-144.31;100.00;72930.03;4975894;28;19957;-69
2021/06/20 01:45:25;;;;;;;;;;;;;;;-144.31;100.00;72942.00;4960047;28;20342;-69
2021/06/20 01:47:51;;;;;;;;;;;;;;;-144.31;100.00;72955.97;4944619;28;19926;-70
2021/06/20 01:50:17;;;;;;;;;;;;;;;-144.31;100.00;72973.94;4962023;28;20021;-70
2021/06/20 01:52:43;;;;;;;;;;;;;;;-144.31;100.00;72987.91;4961030;28;20288;-69
2021/06/20 01:55:10;;;;;;;;;;;;;;;-144.31;100.00;73001.88;4961667;28;19917;-69
2021/06/20 01:57:36;;;;;;;;;;;;;;;-144.31;100.00;73015.84;4976588;28;20269;-69
2021/06/20 02:00:06;;;;;;;;;;;;;;;-144.31;100.00;73031.81;4961028;28;19922;-69
2021/06/20 02:02:41;;;;;;;;;;;;;;;-144.31;100.00;73057.78;4961572;28;19973;-70
2021/06/20 02:05:07;;;;;;;;;;;;;;;-144.31;100.00;73061.75;4963090;28;20016;-70
2021/06/20 02:07:35;;;;;;;;;;;;;;;-144.31;100.00;73073.75;4957337;28;20008;-71
2021/06/20 02:10:00;;;;;;;;;;;;;;;-144.31;100.00;73077.72;4961089;28;19918;-70
2021/06/20 02:12:26;;;;;;;;;;;;;;;-144.31;100.00;73091.72;4961941;28;19920;-69
2021/06/20 02:14:52;;;;;;;;;;;;;;;-144.31;100.00;73097.69;4960388;28;19918;-70
2021/06/20 02:17:27;;;;;;;;;;;;;;;-144.31;100.00;73111.66;4963258;28;19922;-69
2021/06/20 02:19:56;;;;;;;;;;;;;;;-144.31;100.00;73115.66;4961336;28;19997;-70
2021/06/20 02:22:22;;;;;;;;;;;;;;;-144.31;100.00;73121.66;4962536;28;20404;-69
2021/06/20 02:24:47;;;;;;;;;;;;;;;-144.31;100.00;73121.66;4960578;28;19925;-69
2021/06/20 02:27:13;;;;;;;;;;;;;;;-144.31;100.00;73137.63;4959771;28;20348;-72
2021/06/20 02:29:40;;;;;;;;;;;;;;;-144.31;100.00;73129.63;4973875;28;20009;-69
2021/06/20 02:32:05;;;;;;;;;;;;;;;-144.31;100.00;73145.59;4962418;28;19976;-70
2021/06/20 02:34:31;;;;;;;;;;;;;;;-144.31;99.30;73149.59;4960145;28;19958;-70
2021/06/20 02:36:56;;;;;;;;;;;;;;;-144.31;98.35;73163.56;4961693;28;19914;-69
2021/06/20 02:39:21;;;;;;;;;;;;;;;-144.31;96.44;73177.53;4963758;28;19926;-70
2021/06/20 02:41:50;;;;;;;;;;;;;;;-144.31;95.91;73185.53;4975651;28;19965;-70
2021/06/20 02:44:16;;;;;;;;;;;;;;;-144.31;95.52;73207.47;4964613;28;20583;-70
2021/06/20 02:46:41;;;;;;;;;;;;;;;-144.31;95.57;73209.47;4961395;28;20001;-70
2021/06/20 02:49:06;;;;;;;;;;;;;;;-144.31;95.34;73201.50;4959064;28;19918;-71
2021/06/20 02:51:32;;;;;;;;;;;;;;;-144.31;96.85;73183.53;4977416;28;20269;-71
2021/06/20 02:53:57;;;;;;;;;;;;;;;-144.31;100.00;73069.75;4959686;28;19918;-71
2021/06/20 02:56:22;;;;;;;;;;;;;;;-144.31;100.00;73001.88;4977094;28;19914;-71
2021/06/20 02:58:48;;;;;;;;;;;;;;;-144.31;100.00;72961.97;4959432;28;20432;-71
2021/06/20 03:01:13;;;;;;;;;;;;;;;-144.31;100.00;72948.00;4973325;28;19957;-71
2021/06/20 03:03:38;;;;;;;;;;;;;;;-144.31;100.00;72928.03;4961124;28;19929;-70
2021/06/20 03:06:05;;;;;;;;;;;;;;;-144.31;100.00;72902.09;4962717;28;20380;-71
2021/06/20 03:08:31;;;;;;;;;;;;;;;-144.31;100.00;72914.06;4960918;28;19925;-71
2021/06/20 03:10:56;;;;;;;;;;;;;;;-144.31;100.00;72904.09;4959163;28;19918;-71
2021/06/20 03:13:21;;;;;;;;;;;;;;;-144.31;100.00;72898.09;4962245;28;20040;-71
2021/06/20 03:15:47;;;;;;;;;;;;;;;-144.31;100.00;72926.03;4960129;28;19947;-70
2021/06/20 03:18:12;;;;;;;;;;;;;;;-144.31;100.00;72930.03;4957663;28;19961;-70
2021/06/20 03:20:37;;;;;;;;;;;;;;;-144.31;100.00;72948.00;4963473;28;19925;-72
2021/06/20 03:23:13;;;;;;;;;;;;;;;;;;;;;
2021/06/20 03:25:39;;;;;;;;;;;;;;;-144.31;100.00;72969.94;4960717;28;19922;-71
2021/06/20 03:28:05;;;;;;;;;;;;;;;-144.31;100.00;72991.91;4973998;28;19914;-71
2021/06/20 03:30:30;;;;;;;;;;;;;;;-144.31;100.00;73005.88;4961835;28;19925;-71
2021/06/20 03:32:56;;;;;;;;;;;;;;;-144.31;100.00;73025.84;4959530;28;19949;-73
2021/06/20 03:35:21;;;;;;;;;;;;;;;-144.31;100.00;73041.81;4960154;28;19993;-71
2021/06/20 03:37:47;;;;;;;;;;;;;;;-144.31;100.00;73067.75;4960420;28;19970;-71
2021/06/20 03:40:12;;;;;;;;;;;;;;;-144.31;100.00;73069.75;4957374;28;19929;-73
2021/06/20 03:42:38;;;;;;;;;;;;;;;-144.31;100.00;73077.72;4959766;28;19922;-71
2021/06/20 03:45:05;;;;;;;;;;;;;;;-144.31;100.00;73087.72;4960305;28;19918;-71
2021/06/20 03:47:32;;;;;;;;;;;;;;;-144.31;100.00;73105.69;4957218;28;19918;-71
2021/06/20 03:49:57;;;;;;;;;;;;;;;-144.31;100.00;73113.66;4961188;28;19918;-71
2021/06/20 03:52:23;;;;;;;;;;;;;;;-144.31;100.00;73117.66;4959223;28;19924;-70
2021/06/20 03:54:50;;;;;;;;;;;;;;;-144.31;100.00;73121.66;4960094;28;19937;-72
2021/06/20 03:57:17;;;;;;;;;;;;;;;-144.31;100.00;73111.66;4939900;29;20270;-70
2021/06/20 03:59:43;;;;;;;;;;;;;;;-144.31;100.00;73113.66;4957202;28;20232;-71
2021/06/20 04:02:08;;;;;;;;;;;;;;;-144.31;100.00;73113.66;4959307;28;19977;-71
2021/06/20 04:04:35;;;;;;;;;;;;;;;-144.31;100.00;73117.66;4961441;28;20293;-71
2021/06/20 04:07:00;;;;;;;;;;;;;;;-144.31;95.78;73125.63;4960355;28;20291;-73
2021/06/20 04:09:26;;;;;;;;;;;;;;;-144.31;92.83;73127.63;4958533;28;20365;-70
2021/06/20 04:11:54;;;;;;;;;;;;;;;-144.31;92.28;73133.63;4960191;28;19918;-71
2021/06/20 04:14:19;;;;;;;;;;;;;;;-144.31;91.68;73127.63;4975163;28;20421;-71
2021/06/20 04:16:45;;;;;;;;;;;;;;;-144.31;91.01;73121.66;4957702;28;20000;-71
2021/06/20 04:19:10;;;;;;;;;;;;;;;-144.31;90.91;73117.66;4957445;28;19977;-71
2021/06/20 04:21:35;;;;;;;;;;;;;;;-144.31;90.93;73109.66;4974718;28;19917;-71
2021/06/20 04:24:01;;;;;;;;;;;;;;;-144.31;91.03;73097.69;4958616;28;19973;-72
2021/06/20 04:26:26;;;;;;;;;;;;;;;-144.31;90.96;73077.72;4958592;28;20354;-71
2021/06/20 04:28:52;;;;;;;;;;;;;;;-144.31;90.34;73051.78;4957641;28;19925;-70
2021/06/20 04:31:18;;;;;;;;;;;;;;;-144.31;90.50;73041.81;4974562;28;20352;-71
2021/06/20 04:33:44;;;;;;;;;;;;;;;-144.31;90.41;73027.84;4959391;28;19915;-70
2021/06/20 04:36:09;;;;;;;;;;;;;;;-144.31;90.04;73033.81;4958082;28;19918;-71
2021/06/20 04:38:35;;;;;;;;;;;;;;;-144.31;89.99;73029.81;4956235;28;19925;-70
2021/06/20 04:41:06;;;;;;;;;;;;;;;-144.31;89.88;73023.84;4960126;28;19968;-71
2021/06/20 04:46:19;;;;;;;;;;;;;;;-144.31;89.72;73021.84;4957648;28;20368;-71
2021/06/20 04:48:45;;;;;;;;;;;;;;;-144.31;89.90;73013.88;4960417;28;19928;-71
2021/06/20 04:51:10;;;;;;;;;;;;;;;-144.31;89.95;73009.88;4961216;28;19918;-72
2021/06/20 04:53:35;;;;;;;;;;;;;;;-144.31;89.95;73005.88;4957074;28;19918;-72
2021/06/20 04:56:01;;;;;;;;;;;;;;;-144.31;90.10;72997.91;4957962;28;19984;-71
2021/06/20 04:58:26;;;;;;;;;;;;;;;-144.31;90.26;72989.91;4972579;28;19929;-71
2021/06/20 05:00:51;;;;;;;;;;;;;;;-144.31;90.55;72987.91;4972711;28;19924;-71
2021/06/20 05:03:17;;;;;;;;;;;;;;;-144.31;90.75;72997.91;4957523;28;19921;-71
2021/06/20 05:05:43;;;;;;;;;;;;;;;-144.31;90.75;72971.94;4958709;28;19919;-71
2021/06/20 05:08:09;;;;;;;;;;;;;;;-144.31;90.44;72946.00;4957444;28;20537;-70
2021/06/20 05:10:34;;;;;;;;;;;;;;;-144.31;91.53;72920.06;4959902;28;19918;-72
2021/06/20 05:13:00;;;;;;;;;;;;;;;-144.31;95.26;72902.09;4957994;28;19915;-71
2021/06/20 05:15:26;;;;;;;;;;;;;;;-144.31;100.00;72908.06;4959208;28;20283;-70
2021/06/20 05:17:56;;;;;;;;;;;;;;;-144.31;100.00;72904.09;4960253;28;20137;-71
2021/06/20 05:20:24;;;;;;;;;;;;;;;-144.31;100.00;72878.13;4956871;28;19961;-71
2021/06/20 05:22:49;;;;;;;;;;;;;;;-144.31;100.00;72866.16;4974146;28;19961;-71
2021/06/20 05:25:14;;;;;;;;;;;;;;;-144.31;100.00;72862.16;4955969;28;19918;-71
2021/06/20 05:27:40;;;;;;;;;;;;;;;-144.31;100.00;72864.16;4957461;28;20291;-75
2021/06/20 05:30:06;;;;;;;;;;;;;;;-144.31;100.00;72874.13;4957474;28;19914;-70
2021/06/20 05:32:31;;;;;;;;;;;;;;;-144.31;100.00;72886.13;4973978;28;20012;-71
2021/06/20 05:34:57;;;;;;;;;;;;;;;-144.31;100.00;72910.06;4957613;28;19914;-71
2021/06/20 05:37:22;;;;;;;;;;;;;;;-144.31;100.00;72920.06;4957644;28;19926;-70
2021/06/20 05:39:50;;;;;;;;;;;;;;;-144.31;100.00;72924.03;4961231;28;19929;-71
2021/06/20 05:42:15;;;;;;;;;;;;;;;-144.31;100.00;72918.06;4961728;28;19918;-71
2021/06/20 05:44:41;;;;;;;;;;;;;;;-144.31;100.00;72900.09;4963165;28;19924;-72
2021/06/20 05:47:06;;;;;;;;;;;;;;;-144.31;100.00;72852.19;4976021;28;19914;-72
2021/06/20 05:49:31;;;;;;;;;;;;;;;-144.31;100.00;72834.22;4966030;28;19969;-70
2021/06/20 05:51:57;;;;;;;;;;;;;;;-144.31;100.00;72800.28;4977549;28;20351;-72
2021/06/20 05:54:22;;;;;;;;;;;;;;;-144.31;100.00;72762.38;4962714;28;20050;-71
2021/06/20 05:56:50;;;;;;;;;;;;;;;-144.31;100.00;72748.41;4961206;28;19928;-71
2021/06/20 05:59:15;;;;;;;;;;;;;;;-144.31;100.00;72716.47;4962156;28;19917;-71
2021/06/20 06:01:43;;;;;;;;;;;;;;;-144.31;100.00;72728.44;4958633;28;19941;-71
2021/06/20 06:04:08;;;;;;;;;;;;;;;-144.31;100.00;72760.38;4961149;28;19918;-70
2021/06/20 06:06:34;;;;;;;;;;;;;;;-144.31;100.00;72720.44;4963134;28;20277;-70
2021/06/20 06:08:59;;;;;;;;;;;;;;;-144.31;100.00;72710.47;4959422;28;19914;-71
2021/06/20 06:11:24;;;;;;;;;;;;;;;-144.31;100.00;72732.44;4960656;28;19925;-71
2021/06/20 06:13:52;;;;;;;;;;;;;;;-144.31;100.00;72730.44;4949440;28;20476;-69
2021/06/20 06:16:17;;;;;;;;;;;;;;;-144.31;100.00;72744.41;4963237;28;19957;-70
2021/06/20 06:18:45;;;;;;;;;;;;;;;-144.31;100.00;72752.38;4957983;28;20388;-70
2021/06/20 06:21:11;;;;;;;;;;;;;;;-144.31;100.00;72726.44;4961934;28;19921;-70
2021/06/20 06:23:36;;;;;;;;;;;;;;;-144.31;100.00;72658.59;4962518;28;19918;-70
2021/06/20 06:26:02;;;;;;;;;;;;;;;-144.31;100.00;72628.66;4965508;28;19941;-71
2021/06/20 06:28:27;;;;;;;;;;;;;;;-144.31;100.00;72588.72;4959842;28;19918;-71
2021/06/20 06:30:52;;;;;;;;;;;;;;;-144.31;100.00;72626.66;4972751;28;19918;-71
2021/06/20 06:33:18;;;;;;;;;;;;;;;-144.31;100.00;72554.78;4976629;28;20083;-72
2021/06/20 06:35:43;;;;;;;;;;;;;;;-144.31;100.00;72488.94;4975305;28;19927;-70
2021/06/20 06:38:08;;;;;;;;;;;;;;;-144.31;100.00;72466.97;4961677;28;19932;-71
2021/06/20 06:40:36;;;;;;;;;;;;;;;-144.31;100.00;72496.91;4960599;28;19937;-71
2021/06/20 06:43:02;;;;;;;;;;;;;;;-144.31;100.00;72550.81;4958379;28;20027;-70
2021/06/20 06:45:27;;;;;;;;;;;;;;;-144.31;100.00;72552.81;4961672;28;20008;-70
2021/06/20 06:47:53;;;;;;;;;;;;;;;-144.31;100.00;72552.81;4959789;28;19918;-70
2021/06/20 06:50:18;;;;;;;;;;;;;;;-144.31;100.00;72544.81;4976726;28;19921;-71
2021/06/20 06:52:45;;;;;;;;;;;;;;;-144.31;100.00;72532.84;4959992;28;19921;-71
2021/06/20 06:55:10;;;;;;;;;;;;;;;-144.31;100.00;72586.72;4974426;28;19918;-71
2021/06/20 06:57:36;;;;;;;;;;;;;;;-144.31;100.00;72496.91;4977321;28;20605;-71
2021/06/20 07:00:04;;;;;;;;;;;;;;;-144.31;100.00;72502.91;4972263;28;19926;-70
2021/06/20 07:02:31;;;;;;;;;;;;;;;-144.31;100.00;72522.88;4961475;28;19922;-71
2021/06/20 07:04:56;;;;;;;;;;;;;;;-144.31;100.00;72550.81;4959331;28;19918;-70
2021/06/20 07:07:22;;;;;;;;;;;;;;;-144.31;100.00;72526.84;4961083;28;19914;-70
2021/06/20 07:09:49;;;;;;;;;;;;;;;-144.31;100.00;72584.72;4960408;28;19922;-71
2021/06/20 07:12:15;;;;;;;;;;;;;;;-144.31;100.00;72566.78;4960361;28;19949;-70
2021/06/20 07:14:40;;;;;;;;;;;;;;;-144.31;100.00;72586.72;4958729;28;19953;-70
2021/06/20 07:17:07;;;;;;;;;;;;;;;-144.31;100.00;72552.81;4964263;28;19925;-71
2021/06/20 07:19:34;;;;;;;;;;;;;;;-144.31;100.00;72580.75;4960718;28;20372;-70
2021/06/20 07:22:00;;;;;;;;;;;;;;;-144.31;100.00;72594.72;4959339;28;19922;-72
2021/06/20 07:24:25;;;;;;;;;;;;;;;-144.31;100.00;72604.69;4961512;28;19925;-70
2021/06/20 07:26:50;;;;;;;;;;;;;;;-144.31;100.00;72628.66;4960558;28;20304;-71
2021/06/20 07:29:16;;;;;;;;;;;;;;;-144.31;100.00;72638.63;4955861;28;20288;-70
2021/06/20 07:31:41;;;;;;;;;;;;;;;-144.31;100.00;72658.59;4962226;28;19925;-70
2021/06/20 07:34:07;;;;;;;;;;;;;;;-144.31;100.00;72646.59;4958448;28;19949;-70
2021/06/20 07:36:32;;;;;;;;;;;;;;;-144.31;100.00;72650.59;4958061;28;19925;-70
2021/06/20 07:38:58;;;;;;;;;;;;;;;-144.31;100.00;72598.72;4975487;28;20005;-71
2021/06/20 07:41:24;;;;;;;;;;;;;;;-144.31;100.00;72578.75;4960624;28;19914;-70
2021/06/20 07:43:52;;;;;;;;;;;;;;;-144.31;100.00;72584.72;4961560;28;20280;-70
2021/06/20 07:46:17;;;;;;;;;;;;;;;-144.31;100.00;72588.72;4959767;28;20340;-70
2021/06/20 07:48:43;;;;;;;;;;;;;;;-144.31;100.00;72600.69;4955615;28;20392;-69
2021/06/20 07:51:11;;;;;;;;;;;;;;;-144.31;100.00;72620.66;4976323;28;19918;-71
2021/06/20 07:53:36;;;;;;;;;;;;;;;-144.31;100.00;72638.63;4955098;28;19918;-71
2021/06/20 07:56:02;;;;;;;;;;;;;;;-144.31;100.00;72638.63;4958225;28;19921;-72
2021/06/20 07:58:27;;;;;;;;;;;;;;;-144.31;100.00;72678.53;4972340;28;20356;-71
2021/06/20 08:00:52;;;;;;;;;;;;;;;-144.31;100.00;72714.47;4956916;28;20459;-71
2021/06/20 08:03:18;;;;;;;;;;;;;;;-144.31;100.00;72694.50;4957483;28;20021;-71
2021/06/20 08:05:43;;;;;;;;;;;;;;;-144.31;100.00;72702.50;4961154;28;19918;-70
2021/06/20 08:08:09;;;;;;;;;;;;;;;-144.31;100.00;72676.53;4958994;28;19914;-70
2021/06/20 08:10:34;;;;;;;;;;;;;;;-144.31;100.00;72718.47;4958406;28;19918;-70
2021/06/20 08:13:00;;;;;;;;;;;;;;;-144.31;100.00;72740.41;4959531;28;20030;-70
2021/06/20 08:15:25;;;;;;;;;;;;;;;-144.31;100.00;72744.41;4949109;28;19921;-70
2021/06/20 08:17:50;;;;;;;;;;;;;;;-144.31;100.00;72766.34;4960627;28;20291;-70
2021/06/20 08:20:17;;;;;;;;;;;;;;;-144.31;100.00;72760.38;4959410;28;19921;-70
2021/06/20 08:22:44;;;;;;;;;;;;;;;-144.31;100.00;72758.38;4958673;28;19928;-71
2021/06/20 08:25:11;;;;;;;;;;;;;;;-144.31;100.00;72762.38;4962941;28;20424;-70
2021/06/20 08:27:37;;;;;;;;;;;;;;;-144.31;100.00;72744.41;4958136;28;20427;-71
2021/06/20 08:30:04;;;;;;;;;;;;;;;-144.31;100.00;72756.38;4956612;28;19922;-70
2021/06/20 08:32:30;;;;;;;;;;;;;;;-144.31;100.00;72764.38;4960867;28;19954;-71
2021/06/20 08:34:56;;;;;;;;;;;;;;;-144.31;100.00;72722.44;4956261;28;19941;-70
2021/06/20 08:37:24;;;;;;;;;;;;;;;-144.31;100.00;72698.50;4959681;28;20003;-71
2021/06/20 08:39:49;;;;;;;;;;;;;;;-144.31;100.00;72664.56;4960347;28;20004;-71
2021/06/20 08:42:15;;;;;;;;;;;;;;;-144.31;100.00;72598.72;4958131;28;19945;-71
2021/06/20 08:44:40;;;;;;;;;;;;;;;-144.31;100.00;72622.66;4960723;28;19921;-70
2021/06/20 08:47:06;;;;;;;;;;;;;;;-144.31;100.00;72690.50;4958674;28;20315;-71
2021/06/20 08:49:32;;;;;;;;;;;;;;;-144.31;100.00;72616.66;4975786;28;19925;-72
2021/06/20 08:51:58;;;;;;;;;;;;;;;-144.31;100.00;72612.69;4976489;28;19964;-71
2021/06/20 08:54:24;;;;;;;;;;;;;;;-144.31;100.00;72580.75;4958191;28;19918;-72
2021/06/20 08:56:50;;;;;;;;;;;;;;;-144.31;100.00;72606.69;4959234;28;19922;-71
2021/06/20 08:59:17;;;;;;;;;;;;;;;-144.31;100.00;72570.75;4974524;28;20415;-70
2021/06/20 09:01:42;;;;;;;;;;;;;;;-144.31;100.00;72518.88;4972607;28;19919;-71
2021/06/20 09:04:08;;;;;;;;;;;;;;;-144.31;100.00;72540.81;4975332;28;19972;-71
2021/06/20 09:06:34;;;;;;;;;;;;;;;-144.31;100.00;72463.00;4970324;28;19918;-71
2021/06/20 09:09:01;;;;;;;;;;;;;;;-144.31;100.00;72526.84;4959284;28;19921;-73
2021/06/20 09:11:33;;;;;;;;;;;;;;;-144.31;100.00;72534.84;4956220;28;19965;-70
2021/06/20 09:14:02;;;;;;;;;;;;;;;-144.31;100.00;72502.91;4957905;28;19925;-71
2021/06/20 09:16:28;;;;;;;;;;;;;;;-144.31;100.00;72459.00;4976570;28;20315;-71
2021/06/20 09:18:54;;;;;;;;;;;;;;;-144.31;100.00;72478.97;4960037;28;20452;-70
2021/06/20 09:21:24;;;;;;;;;;;;;;;-144.31;100.00;72516.88;4963419;28;19973;-70
2021/06/20 09:23:49;;;;;;;;;;;;;;;-144.31;100.00;72476.97;4963332;28;19918;-72
2021/06/20 09:26:15;;;;;;;;;;;;;;;-144.31;100.00;72586.72;4961327;28;19922;-71
2021/06/20 09:28:41;;;;;;;;;;;;;;;-144.31;100.00;72482.94;4961508;28;19919;-71
2021/06/20 09:31:09;;;;;;;;;;;;;;;-144.31;100.00;72457.00;4977976;28;19941;-72
2021/06/20 09:33:37;;;;;;;;;;;;;;;-144.31;100.00;72445.03;4978464;28;20280;-71
2021/06/20 09:36:02;;;;;;;;;;;;;;;-144.31;100.00;72389.16;4961198;28;19979;-70
2021/06/20 09:38:37;;;;;;;;;;;;;;;-144.31;100.00;72419.09;4963162;28;19925;-71
2021/06/20 09:41:05;;;;;;;;;;;;;;;-144.31;100.00;72431.06;4963584;28;19990;-70
2021/06/20 09:43:31;;;;;;;;;;;;;;;-144.31;100.00;72429.06;4961796;28;19918;-71
2021/06/20 09:45:59;;;;;;;;;;;;;;;-144.31;100.00;72461.00;4963444;28;19918;-70
2021/06/20 09:48:30;;;;;;;;;;;;;;;-144.31;100.00;72407.09;4962670;28;19977;-71
2021/06/20 09:51:00;;;;;;;;;;;;;;;-144.31;100.00;72355.22;4961236;28;19918;-71
2021/06/20 09:53:31;;;;;;;;;;;;;;;-144.31;100.00;72399.13;4961179;28;19988;-72
2021/06/20 09:56:30;;;;;;;;;;;;;;;-144.31;100.00;72319.31;4957756;28;19976;-72
2021/06/20 09:58:55;;;;;;;;;;;;;;;-144.31;100.00;72373.19;4942537;28;19961;-71
2021/06/20 10:01:24;;;;;;;;;;;;;;;-144.31;100.00;72367.19;4947375;28;20061;-73
2021/06/20 10:03:49;;;;;;;;;;;;;;;-144.31;100.00;72333.28;4952347;28;20038;-73
2021/06/20 10:06:15;;;;;;;;;;;;;;;-144.31;100.00;72423.06;4951405;28;19940;-71
2021/06/20 10:08:41;;;;;;;;;;;;;;;-144.31;100.00;72451.03;4953474;28;19953;-71
2021/06/20 10:11:07;;;;;;;;;;;;;;;-144.31;100.00;72476.97;4967884;28;19925;-72
2021/06/20 10:13:35;;;;;;;;;;;;;;;-144.31;100.00;72415.09;4952231;28;19918;-71
2021/06/20 10:16:16;;;;;;;;;;;;;;;-144.31;100.00;72461.00;4968693;28;19926;-70
2021/06/20 10:18:46;;;;;;;;;;;;;;;-144.31;100.00;72480.94;4940529;28;19925;-73
2021/06/20 10:21:11;;;;;;;;;;;;;;;-144.31;100.00;72407.09;4932117;28;19963;-73
2021/06/20 10:23:39;;;;;;;;;;;;;;;-144.31;100.00;72375.19;4942257;28;20221;-73
2021/06/20 10:26:05;;;;;;;;;;;;;;;-144.31;100.00;72427.06;4949370;28;19918;-72
2021/06/20 10:28:33;;;;;;;;;;;;;;;-144.31;100.00;72455.00;4952499;28;19925;-72
2021/06/20 10:31:05;;;;;;;;;;;;;;;-144.31;100.00;72387.16;4953668;28;20021;-72
2021/06/20 10:33:32;;;;;;;;;;;;;;;-144.31;100.00;72463.00;4951085;28;20277;-73
2021/06/20 10:35:58;;;;;;;;;;;;;;;-144.31;100.00;72407.09;4954913;28;19926;-74
2021/06/20 10:38:53;;;;;;;;;;;;;;;-144.31;100.00;72395.13;4951748;28;20223;-72
2021/06/20 10:41:24;;;;;;;;;;;;;;;-144.31;100.00;72439.03;4950331;28;19918;-70
2021/06/20 10:44:00;;;;;;;;;;;;;;;-144.31;100.00;72377.19;4968317;28;19929;-70
2021/06/20 10:46:29;;;;;;;;;;;;;;;-144.31;100.00;72472.97;4928380;28;19934;-71
2021/06/20 10:48:54;;;;;;;;;;;;;;;-144.31;100.00;72498.91;4934324;28;19924;-69
2021/06/20 10:51:21;;;;;;;;;;;;;;;-144.31;100.00;72397.13;4950567;28;19922;-70
2021/06/20 10:53:47;;;;;;;;;;;;;;;-144.31;100.00;72423.06;4935332;28;19928;-72
2021/06/20 10:56:38;;;;;;;;;;;;;;;-144.31;100.00;72429.06;4933361;28;20364;-69
2021/06/20 10:59:06;;;;;;;;;;;;;;;-144.31;100.00;72383.16;4944432;28;20388;-71
2021/06/20 11:01:39;;;;;;;;;;;;;;;-144.31;100.00;72510.88;4969845;28;19921;-70
2021/06/20 11:04:05;;;;;;;;;;;;;;;-144.31;100.00;72482.94;4944923;28;20886;-71
2021/06/20 11:06:30;;;;;;;;;;;;;;;-144.31;100.00;72409.09;4954543;28;19922;-69
2021/06/20 11:08:57;;;;;;;;;;;;;;;-144.31;100.00;72385.16;4935416;28;19922;-69
2021/06/20 11:11:38;;;;;;;;;;;;;;;-144.31;100.00;72367.19;4941858;28;19948;-68
2021/06/20 11:14:06;;;;;;;;;;;;;;;-144.31;100.00;72301.34;4955283;28;20357;-71
2021/06/20 11:16:36;;;;;;;;;;;;;;;-144.31;100.00;72319.31;4953914;28;20009;-71
2021/06/20 11:19:06;;;;;;;;;;;;;;;-144.31;100.00;72253.44;4951296;28;20020;-71
2021/06/20 11:21:32;;;;;;;;;;;;;;;-144.31;100.00;72209.53;4938426;28;20615;-72
2021/06/20 11:23:57;;;;;;;;;;;;;;;-144.31;100.00;72307.31;4953797;28;20373;-70
2021/06/20 11:26:22;;;;;;;;;;;;;;;-144.31;100.00;72215.53;4936191;28;19928;-73
2021/06/20 11:29:01;;;;;;;;;;;;;;;-144.31;100.00;72155.66;4940013;28;19929;-69
2021/06/20 11:31:28;;;;;;;;;;;;;;;-144.31;100.00;72207.53;4933658;28;19945;-74
2021/06/20 11:33:56;;;;;;;;;;;;;;;-144.31;100.00;72143.69;4952379;28;19925;-72
2021/06/20 11:36:22;;;;;;;;;;;;;;;-144.31;100.00;72305.34;4953180;28;19922;-71
2021/06/20 11:38:48;;;;;;;;;;;;;;;-144.31;100.00;72141.69;4936197;28;20479;-70
2021/06/20 11:41:19;;;;;;;;;;;;;;;-144.31;100.00;72259.44;4937644;28;19914;-70
2021/06/20 11:43:58;;;;;;;;;;;;;;;-144.31;100.00;72251.44;4936828;28;20468;-72
2021/06/20 11:46:25;;;;;;;;;;;;;;;-144.31;100.00;72011.97;4937337;28;19922;-70
2021/06/20 11:48:58;;;;;;;;;;;;;;;-144.31;100.00;72047.91;4937543;28;20041;-74
2021/06/20 11:51:32;;;;;;;;;;;;;;;-144.31;100.00;72025.94;4956119;28;19924;-70
2021/06/20 11:54:08;;;;;;;;;;;;;;;-144.31;100.00;71820.41;4937232;28;20324;-70
2021/06/20 11:56:33;;;;;;;;;;;;;;;-144.31;100.00;71822.41;4955034;28;20136;-71
2021/06/20 11:58:59;;;;;;;;;;;;;;;-144.31;100.00;71964.09;4954431;28;19922;-69
2021/06/20 12:01:35;;;;;;;;;;;;;;;-144.31;100.00;71854.31;4953117;28;19973;-71
2021/06/20 12:04:01;;;;;;;;;;;;;;;-144.31;100.00;71900.22;4951144;28;20485;-70
2021/06/20 12:06:26;;;;;;;;;;;;;;;-144.31;100.00;71868.28;4954193;28;20274;-70
2021/06/20 12:08:52;;;;;;;;;;;;;;;-144.31;100.00;71555.03;4949931;28;20009;-70
2021/06/20 12:11:27;;;;;;;;;;;;;;;-144.31;100.00;71584.94;4923365;28;20420;-70
2021/06/20 12:13:52;;;;;;;;;;;;;;;-144.31;100.00;71714.66;4937770;28;20480;-72
2021/06/20 12:16:18;;;;;;;;;;;;;;;-144.31;100.00;71936.16;4937749;28;19922;-72
2021/06/20 12:18:46;;;;;;;;;;;;;;;-144.31;100.00;71856.31;4925274;28;20066;-70
2021/06/20 12:21:21;;;;;;;;;;;;;;;-144.31;100.00;71746.56;4937510;28;20443;-70